Hanjin Philadelphia — A8CN8 — position and weather

sailwx.info

Track history (hours):
 
Tides and Currents Weather Stations Pressure Air Temp Water Temp Dewpoint Dewpoint Depression Visibility Wind Speed Wind Dir Waves Ship Positions

Hanjin Philadelphia

Last reported at 2014-Aug-22 06:32 UTC. Time now 2014-Aug-22 07:55 UTC.
Position N 31°20' E 121°39'.

Length 282.1 m; beam 32.2 m; draft 13 m.

Type: Ship. MMSI: 636090670.

Date/timePositionNaut miles runAvg speedWind from/ knotsBaromVisibWave heightAir tempDewpointWater temp
2014-Aug-22 06:32N 31°20' E 121°39'0 0.0
2014-Aug-22 04:08N 31°20' E 121°39'0 0.0
2014-Aug-22 03:26N 31°20' E 121°39'0 0.2
2014-Aug-22 01:32N 31°21' E 121°39'4210.0
2014-Aug-21 21:23N 31°06' E 122°25'9 8.6
2014-Aug-21 20:23N 31°07' E 122°35'14 1.7
2014-Aug-21 12:14N 31°04' E 122°51'5 8.0
2014-Aug-21 11:33N 31°01' E 122°56'10 7.5
2014-Aug-21 10:17N 30°52' E 123°00'6 7.6
2014-Aug-21 09:33N 30°46' E 123°01'9 7.6
2014-Aug-21 08:21N 30°37' E 123°04'7 8.5
2014-Aug-21 07:30N 30°30' E 123°04'6 6.5
2014-Aug-21 06:32N 30°24' E 123°04'8 7.8
2014-Aug-21 05:26N 30°15' E 123°04'15 7.5
2014-Aug-21 03:29N 30°01' E 123°02'9 7.1
2014-Aug-21 02:16N 29°54' E 122°56'8 7.5
2014-Aug-21 01:11N 29°48' E 122°50'0 0.0
2014-Aug-20 21:30N 29°48' E 122°50'0 0.1
2014-Aug-20 19:18N 29°48' E 122°50'0 0.0
2014-Aug-20 13:12N 29°48' E 122°50'0 0.0
2014-Aug-20 12:12N 29°48' E 122°50'0 0.0
2014-Aug-20 11:30N 29°48' E 122°50'0 0.0
2014-Aug-20 09:24N 29°48' E 122°50'0 0.0
2014-Aug-20 08:18N 29°48' E 122°50'0 0.2
2014-Aug-20 07:18N 29°48' E 122°50'0 0.1
2014-Aug-20 06:24N 29°48' E 122°50'0 0.0
2014-Aug-20 05:30N 29°48' E 122°50'0 0.0
2014-Aug-19 22:06N 29°48' E 122°50'0 0.0
2014-Aug-19 06:24N 29°48' E 122°50'0 0.0
2014-Aug-19 04:24N 29°48' E 122°50'0 0.0
2014-Aug-18 10:30N 29°48' E 122°50'0 0.0
2014-Aug-17 12:18N 29°48' E 122°50'0 0.0
2014-Aug-17 11:30N 29°48' E 122°50'0 0.1
2014-Aug-17 10:24N 29°48' E 122°50'0 0.0
2014-Aug-17 08:12N 29°48' E 122°50'0 0.1
2014-Aug-17 04:30N 29°48' E 122°50'0 0.1
2014-Aug-17 03:06N 29°48' E 122°50'0 0.1
2014-Aug-17 02:06N 29°48' E 122°50'0 0.0
2014-Aug-16 23:24N 29°48' E 122°50'0 0.1
2014-Aug-16 22:30N 29°48' E 122°50'0 0.1
2014-Aug-16 21:30N 29°48' E 122°50'0 0.0
2014-Aug-16 20:30N 29°48' E 122°50'0 0.1
2014-Aug-16 19:30N 29°48' E 122°50'0 0.1
2014-Aug-16 18:24N 29°48' E 122°50'0 0.1
2014-Aug-16 17:24N 29°48' E 122°50'0 0.1
2014-Aug-16 16:06N 29°48' E 122°50'0 0.1
2014-Aug-16 15:24N 29°48' E 122°50'0 0.0
2014-Aug-16 14:06N 29°48' E 122°50'0 0.1
2014-Aug-16 13:30N 29°48' E 122°50'0 0.0
2014-Aug-16 12:24N 29°48' E 122°50'0 0.0
2014-Aug-16 11:30N 29°48' E 122°50'0 0.1
2014-Aug-16 07:24N 29°48' E 122°50'0 0.0
2014-Aug-16 06:12N 29°48' E 122°50'0 0.0
2014-Aug-16 05:24N 29°48' E 122°50'0 0.1
2014-Aug-16 04:12N 29°48' E 122°50'0 0.0
2014-Aug-16 03:24N 29°48' E 122°50'0 0.1
2014-Aug-16 02:12N 29°48' E 122°50'0 0.0
2014-Aug-15 22:30N 29°48' E 122°50'0 0.0
2014-Aug-15 21:06N 29°48' E 122°50'0 0.0
2014-Aug-15 20:24N 29°48' E 122°50'0 0.0
2014-Aug-15 19:30N 29°48' E 122°50'0 0.1
2014-Aug-15 18:24N 29°48' E 122°50'0 0.1
2014-Aug-15 17:30N 29°48' E 122°50'0 0.0
2014-Aug-15 15:24N 29°48' E 122°50'0 0.0
2014-Aug-15 13:30N 29°48' E 122°50'0 0.0
2014-Aug-15 11:30N 29°48' E 122°50'0 0.0
2014-Aug-15 10:06N 29°48' E 122°50'0 0.0
2014-Aug-15 09:18N 29°48' E 122°50'0 0.1
2014-Aug-15 08:24N 29°48' E 122°50'0 0.1
2014-Aug-15 05:30N 29°48' E 122°50'0 0.0
2014-Aug-15 03:18N 29°48' E 122°50'0 0.1
2014-Aug-15 01:06N 29°48' E 122°50'0 0.0
2014-Aug-14 21:24N 29°48' E 122°50'0 0.0
2014-Aug-14 08:06N 29°48' E 122°50'0 0.1
2014-Aug-14 06:30N 29°48' E 122°50'0 0.1
2014-Aug-14 05:24N 29°48' E 122°50'0 0.0
2014-Aug-14 03:24N 29°48' E 122°50'0 0.1
2014-Aug-14 02:18N 29°48' E 122°50'0 0.1
2014-Aug-13 21:30N 29°48' E 122°50'0 0.1
2014-Aug-13 18:12N 29°48' E 122°50'0 0.0
2014-Aug-13 17:30N 29°48' E 122°50'0 0.0
2014-Aug-13 16:06N 29°48' E 122°50'0 0.0
2014-Aug-13 15:12N 29°48' E 122°50'0 0.0
2014-Aug-13 14:30N 29°48' E 122°50'0 0.1
2014-Aug-13 13:30N 29°48' E 122°49'0 0.0
2014-Aug-13 10:06N 29°48' E 122°50'0 0.0
2014-Aug-13 05:30N 29°48' E 122°50'0 0.0
2014-Aug-13 03:12N 29°48' E 122°50'0 0.1
2014-Aug-13 02:12N 29°48' E 122°49'0 0.0
2014-Aug-12 23:30N 29°48' E 122°49'0 0.0
2014-Aug-12 22:24N 29°48' E 122°49'0 0.1
2014-Aug-12 21:30N 29°48' E 122°50'0 0.1
2014-Aug-12 17:24N 29°48' E 122°50'0 0.0
2014-Aug-12 16:30N 29°48' E 122°50'0 0.0
2014-Aug-12 15:18N 29°48' E 122°50'0 0.0
2014-Aug-12 07:18N 29°48' E 122°50'  
Track history (hours):
 
Tides and Currents Weather Stations Pressure Air Temp Water Temp Dewpoint Dewpoint Depression Visibility Wind Speed Wind Dir Waves Ship Positions

Hanjin Philadelphia

Last reported at 2014-Aug-22 06:32 UTC. Time now 2014-Aug-22 07:55 UTC.
Position N 31°20' E 121°39'.

Length 282.1 m; beam 32.2 m; draft 13 m.

Type: Ship. MMSI: 636090670.

Date/timePositionNaut miles runAvg speedWind from/ knotsBaromVisibWave heightAir tempDewpointWater temp
2014-Aug-22 06:32N 31°20' E 121°39'0 0.0
2014-Aug-22 04:08N 31°20' E 121°39'0 0.0
2014-Aug-22 03:26N 31°20' E 121°39'0 0.2
2014-Aug-22 01:32N 31°21' E 121°39'4210.0
2014-Aug-21 21:23N 31°06' E 122°25'9 8.6
2014-Aug-21 20:23N 31°07' E 122°35'14 1.7
2014-Aug-21 12:14N 31°04' E 122°51'5 8.0
2014-Aug-21 11:33N 31°01' E 122°56'10 7.5
2014-Aug-21 10:17N 30°52' E 123°00'6 7.6
2014-Aug-21 09:33N 30°46' E 123°01'9 7.6
2014-Aug-21 08:21N 30°37' E 123°04'7 8.5
2014-Aug-21 07:30N 30°30' E 123°04'6 6.5
2014-Aug-21 06:32N 30°24' E 123°04'8 7.8
2014-Aug-21 05:26N 30°15' E 123°04'15 7.5
2014-Aug-21 03:29N 30°01' E 123°02'9 7.1
2014-Aug-21 02:16N 29°54' E 122°56'8 7.5
2014-Aug-21 01:11N 29°48' E 122°50'0 0.0
2014-Aug-20 21:30N 29°48' E 122°50'0 0.1
2014-Aug-20 19:18N 29°48' E 122°50'0 0.0
2014-Aug-20 13:12N 29°48' E 122°50'0 0.0
2014-Aug-20 12:12N 29°48' E 122°50'0 0.0
2014-Aug-20 11:30N 29°48' E 122°50'0 0.0
2014-Aug-20 09:24N 29°48' E 122°50'0 0.0
2014-Aug-20 08:18N 29°48' E 122°50'0 0.2
2014-Aug-20 07:18N 29°48' E 122°50'0 0.1
2014-Aug-20 06:24N 29°48' E 122°50'0 0.0
2014-Aug-20 05:30N 29°48' E 122°50'0 0.0
2014-Aug-19 22:06N 29°48' E 122°50'0 0.0
2014-Aug-19 06:24N 29°48' E 122°50'0 0.0
2014-Aug-19 04:24N 29°48' E 122°50'0 0.0
2014-Aug-18 10:30N 29°48' E 122°50'0 0.0
2014-Aug-17 12:18N 29°48' E 122°50'0 0.0
2014-Aug-17 11:30N 29°48' E 122°50'0 0.1
2014-Aug-17 10:24N 29°48' E 122°50'0 0.0
2014-Aug-17 08:12N 29°48' E 122°50'0 0.1
2014-Aug-17 04:30N 29°48' E 122°50'0 0.1
2014-Aug-17 03:06N 29°48' E 122°50'0 0.1
2014-Aug-17 02:06N 29°48' E 122°50'0 0.0
2014-Aug-16 23:24N 29°48' E 122°50'0 0.1
2014-Aug-16 22:30N 29°48' E 122°50'0 0.1
2014-Aug-16 21:30N 29°48' E 122°50'0 0.0
2014-Aug-16 20:30N 29°48' E 122°50'0 0.1
2014-Aug-16 19:30N 29°48' E 122°50'0 0.1
2014-Aug-16 18:24N 29°48' E 122°50'0 0.1
2014-Aug-16 17:24N 29°48' E 122°50'0 0.1
2014-Aug-16 16:06N 29°48' E 122°50'0 0.1
2014-Aug-16 15:24N 29°48' E 122°50'0 0.0
2014-Aug-16 14:06N 29°48' E 122°50'0 0.1
2014-Aug-16 13:30N 29°48' E 122°50'0 0.0
2014-Aug-16 12:24N 29°48' E 122°50'0 0.0
2014-Aug-16 11:30N 29°48' E 122°50'0 0.1
2014-Aug-16 07:24N 29°48' E 122°50'0 0.0
2014-Aug-16 06:12N 29°48' E 122°50'0 0.0
2014-Aug-16 05:24N 29°48' E 122°50'0 0.1
2014-Aug-16 04:12N 29°48' E 122°50'0 0.0
2014-Aug-16 03:24N 29°48' E 122°50'0 0.1
2014-Aug-16 02:12N 29°48' E 122°50'0 0.0
2014-Aug-15 22:30N 29°48' E 122°50'0 0.0
2014-Aug-15 21:06N 29°48' E 122°50'0 0.0
2014-Aug-15 20:24N 29°48' E 122°50'0 0.0
2014-Aug-15 19:30N 29°48' E 122°50'0 0.1
2014-Aug-15 18:24N 29°48' E 122°50'0 0.1
2014-Aug-15 17:30N 29°48' E 122°50'0 0.0
2014-Aug-15 15:24N 29°48' E 122°50'0 0.0
2014-Aug-15 13:30N 29°48' E 122°50'0 0.0
2014-Aug-15 11:30N 29°48' E 122°50'0 0.0
2014-Aug-15 10:06N 29°48' E 122°50'0 0.0
2014-Aug-15 09:18N 29°48' E 122°50'0 0.1
2014-Aug-15 08:24N 29°48' E 122°50'0 0.1
2014-Aug-15 05:30N 29°48' E 122°50'0 0.0
2014-Aug-15 03:18N 29°48' E 122°50'0 0.1
2014-Aug-15 01:06N 29°48' E 122°50'0 0.0
2014-Aug-14 21:24N 29°48' E 122°50'0 0.0
2014-Aug-14 08:06N 29°48' E 122°50'0 0.1
2014-Aug-14 06:30N 29°48' E 122°50'0 0.1
2014-Aug-14 05:24N 29°48' E 122°50'0 0.0
2014-Aug-14 03:24N 29°48' E 122°50'0 0.1
2014-Aug-14 02:18N 29°48' E 122°50'0 0.1
2014-Aug-13 21:30N 29°48' E 122°50'0 0.1
2014-Aug-13 18:12N 29°48' E 122°50'0 0.0
2014-Aug-13 17:30N 29°48' E 122°50'0 0.0
2014-Aug-13 16:06N 29°48' E 122°50'0 0.0
2014-Aug-13 15:12N 29°48' E 122°50'0 0.0
2014-Aug-13 14:30N 29°48' E 122°50'0 0.1
2014-Aug-13 13:30N 29°48' E 122°49'0 0.0
2014-Aug-13 10:06N 29°48' E 122°50'0 0.0
2014-Aug-13 05:30N 29°48' E 122°50'0 0.0
2014-Aug-13 03:12N 29°48' E 122°50'0 0.1
2014-Aug-13 02:12N 29°48' E 122°49'0 0.0
2014-Aug-12 23:30N 29°48' E 122°49'0 0.0
2014-Aug-12 22:24N 29°48' E 122°49'0 0.1
2014-Aug-12 21:30N 29°48' E 122°50'0 0.1
2014-Aug-12 17:24N 29°48' E 122°50'0 0.0
2014-Aug-12 16:30N 29°48' E 122°50'0 0.0
2014-Aug-12 15:18N 29°48' E 122°50'0 0.0
2014-Aug-12 07:18N 29°48' E 122°50'  

Dump ship's entire track history